Time;durP1;ratioP1;P1;durP2;ratioP2;P2;SDS_P1;SDS_P2;PMS_P1;PMS_P2;Temp;Humidity;BMP_temperature;BMP_pressure;BME280_temperature;BME280_humidity;BME280_pressure;Samples;Min_cycle;Max_cycle;Signal;HPM_P1;HPM_P2
2023/05/12 00:00:59;;;;;;;0.30;0.30;;;14.40;70.20;;;;;;4962074;28;20293;-76
2023/05/12 00:03:27;;;;;;;0.30;0.30;;;14.30;70.40;;;;;;4968604;28;20194;-77
2023/05/12 00:05:55;;;;;;;0.30;0.30;;;14.30;70.40;;;;;;4965094;28;20221;-76
2023/05/12 00:08:24;;;;;;;0.40;0.40;;;14.30;71.00;;;;;;4978492;28;20251;-76
2023/05/12 00:10:53;;;;;;;2.20;1.00;;;14.30;71.00;;;;;;4977601;28;20558;-76
2023/05/12 00:13:23;;;;;;;0.50;0.50;;;14.20;71.00;;;;;;4966399;28;20197;-76
2023/05/12 00:15:53;;;;;;;2.47;0.90;;;14.20;71.10;;;;;;4958539;28;20642;-76
2023/05/12 00:18:22;;;;;;;1.50;0.80;;;14.20;71.30;;;;;;4968684;28;20202;-76
2023/05/12 00:20:52;;;;;;;3.40;1.00;;;14.10;72.00;;;;;;4970937;28;20198;-76
2023/05/12 00:23:21;;;;;;;1.83;1.50;;;14.10;72.90;;;;;;4967679;28;20202;-75
2023/05/12 00:25:50;;;;;;;1.27;1.07;;;14.00;73.60;;;;;;4966933;28;20209;-76
2023/05/12 00:28:20;;;;;;;1.67;0.70;;;14.00;73.60;;;;;;4972898;28;20308;-76
2023/05/12 00:30:48;;;;;;;0.40;0.40;;;13.90;74.10;;;;;;4967311;28;20198;-76
2023/05/12 00:33:16;;;;;;;2.77;1.03;;;13.90;74.60;;;;;;4970105;28;21082;-76
2023/05/12 00:35:45;;;;;;;1.50;0.90;;;13.80;74.70;;;;;;4965294;28;20265;-76
2023/05/12 00:38:13;;;;;;;5.67;0.90;;;13.80;74.70;;;;;;4960676;28;20546;-75
2023/05/12 00:40:41;;;;;;;1.17;1.07;;;13.70;75.20;;;;;;4963433;28;20190;-76
2023/05/12 00:43:10;;;;;;;0.73;0.73;;;13.60;76.30;;;;;;4967545;28;20229;-75
2023/05/12 00:45:40;;;;;;;0.57;0.57;;;13.60;77.20;;;;;;4965854;28;20288;-76
2023/05/12 00:48:08;;;;;;;0.80;0.80;;;13.50;77.20;;;;;;4963743;28;20222;-76
2023/05/12 00:50:37;;;;;;;2.87;1.57;;;13.50;77.60;;;;;;4970025;28;20233;-76
2023/05/12 00:53:07;;;;;;;0.80;0.80;;;13.40;77.20;;;;;;4967932;28;20229;-76
2023/05/12 00:55:36;;;;;;;0.50;0.50;;;13.40;77.10;;;;;;4963769;28;20291;-75
2023/05/12 00:58:06;;;;;;;0.93;0.87;;;13.40;76.80;;;;;;4967477;28;20202;-76
2023/05/12 01:00:34;;;;;;;1.30;1.23;;;13.40;77.80;;;;;;4959620;28;20202;-76
2023/05/12 01:03:04;;;;;;;0.90;0.90;;;13.30;78.60;;;;;;4969550;28;20194;-76
2023/05/12 01:05:39;;;;;;;0.67;0.67;;;13.30;78.70;;;;;;4972180;28;20236;-76
2023/05/12 01:08:08;;;;;;;0.70;0.70;;;13.20;79.00;;;;;;4967589;28;20271;-76
2023/05/12 01:10:37;;;;;;;1.03;0.83;;;13.20;79.30;;;;;;4959956;28;20293;-76
2023/05/12 01:13:05;;;;;;;3.03;1.17;;;13.20;79.70;;;;;;4970214;28;20198;-76
2023/05/12 01:15:34;;;;;;;0.90;0.90;;;13.10;79.90;;;;;;4959514;28;20202;-76
2023/05/12 01:18:05;;;;;;;0.63;0.63;;;13.10;79.30;;;;;;4965419;28;20232;-78
2023/05/12 01:20:34;;;;;;;0.80;0.80;;;13.20;79.00;;;;;;4965194;28;20195;-76
2023/05/12 01:23:04;;;;;;;6.80;1.00;;;13.10;78.80;;;;;;4967746;28;20689;-77
2023/05/12 01:25:33;;;;;;;1.17;1.07;;;13.10;79.70;;;;;;4963275;28;20198;-76
2023/05/12 01:28:04;;;;;;;4.90;2.07;;;13.10;80.20;;;;;;4967610;28;20671;-77
2023/05/12 01:30:35;;;;;;;0.53;0.53;;;13.00;80.30;;;;;;4961543;28;20289;-76
2023/05/12 01:33:03;;;;;;;1.67;1.57;;;13.00;80.80;;;;;;4964528;28;20200;-76
2023/05/12 01:35:31;;;;;;;1.67;1.07;;;12.90;80.80;;;;;;4965102;28;20201;-76
2023/05/12 01:38:00;;;;;;;0.80;0.80;;;12.90;80.80;;;;;;4962008;28;20194;-76
2023/05/12 01:40:28;;;;;;;0.80;0.80;;;12.90;80.60;;;;;;4969071;28;20271;-76
2023/05/12 01:42:56;;;;;;;2.40;1.63;;;12.90;80.40;;;;;;4967920;28;20233;-76
2023/05/12 01:45:26;;;;;;;1.45;1.15;;;12.90;81.10;;;;;;4965325;28;20534;-77
2023/05/12 01:47:54;;;;;;;1.73;1.03;;;12.80;81.50;;;;;;4967617;28;20225;-77
2023/05/12 01:50:22;;;;;;;0.90;0.90;;;12.80;82.70;;;;;;4964887;28;20265;-76
2023/05/12 01:52:51;;;;;;;1.30;0.83;;;12.70;82.70;;;;;;4960687;28;20713;-77
2023/05/12 01:55:19;;;;;;;3.67;1.43;;;12.70;82.50;;;;;;4961914;28;20635;-76
2023/05/12 01:57:47;;;;;;;1.70;1.43;;;12.70;82.50;;;;;;4962616;28;20604;-77
2023/05/12 02:00:16;;;;;;;2.23;1.13;;;12.70;83.10;;;;;;4966840;28;20230;-77
2023/05/12 02:02:46;;;;;;;0.40;0.40;;;12.70;83.10;;;;;;4964485;28;20197;-76
2023/05/12 02:05:14;;;;;;;6.70;2.10;;;12.60;83.10;;;;;;4958896;28;20349;-77
2023/05/12 02:07:43;;;;;;;2.40;1.47;;;12.60;83.10;;;;;;4959920;28;20284;-77
2023/05/12 02:10:11;;;;;;;1.20;1.03;;;12.60;83.00;;;;;;4962159;28;20731;-78
2023/05/12 02:12:39;;;;;;;5.57;1.57;;;12.60;83.30;;;;;;4969046;28;20198;-75
2023/05/12 02:15:09;;;;;;;2.50;1.00;;;12.50;83.90;;;;;;4965928;28;20257;-76
2023/05/12 02:17:37;;;;;;;1.03;0.83;;;12.60;84.00;;;;;;4965972;28;20194;-76
2023/05/12 02:20:10;;;;;;;0.77;0.77;;;12.60;84.10;;;;;;4962197;28;20232;-76
2023/05/12 02:22:39;;;;;;;3.23;2.03;;;12.50;83.80;;;;;;4964529;28;20197;-77
2023/05/12 02:25:08;;;;;;;1.27;0.97;;;12.60;83.90;;;;;;4962669;28;20650;-77
2023/05/12 02:27:36;;;;;;;1.13;1.03;;;12.60;83.70;;;;;;4961685;28;20317;-76
2023/05/12 02:30:06;;;;;;;1.90;1.07;;;12.60;84.00;;;;;;4961320;28;20254;-77
2023/05/12 02:32:34;;;;;;;1.00;1.00;;;12.60;84.10;;;;;;4965738;28;20202;-76
2023/05/12 02:35:02;;;;;;;1.17;1.07;;;12.50;84.10;;;;;;4965515;28;20292;-78
2023/05/12 02:37:33;;;;;;;2.33;1.10;;;12.50;83.70;;;;;;4965976;28;20229;-77
2023/05/12 02:40:01;;;;;;;0.73;0.73;;;12.50;83.90;;;;;;4967639;28;20202;-76
2023/05/12 02:42:34;;;;;;;2.77;1.20;;;12.60;83.80;;;;;;4964797;28;20217;-77
2023/05/12 02:45:03;;;;;;;1.40;1.20;;;12.50;84.10;;;;;;4965806;28;20202;-77
2023/05/12 02:47:31;;;;;;;2.07;1.70;;;12.50;84.10;;;;;;4965404;28;20194;-76
2023/05/12 02:50:00;;;;;;;6.40;1.00;;;12.50;84.00;;;;;;4966184;28;20594;-76
2023/05/12 02:52:29;;;;;;;3.43;1.57;;;12.50;83.80;;;;;;4962522;28;20729;-76
2023/05/12 02:54:58;;;;;;;2.07;1.73;;;12.60;84.40;;;;;;4973136;28;20256;-76
2023/05/12 02:57:32;;;;;;;1.60;1.50;;;12.60;84.70;;;;;;4967727;28;20598;-77
2023/05/12 03:00:03;;;;;;;0.50;0.50;;;12.50;84.40;;;;;;4966867;28;20217;-77
2023/05/12 03:02:31;;;;;;;0.63;0.63;;;12.60;84.70;;;;;;4965620;28;20570;-77
2023/05/12 03:05:05;;;;;;;0.60;0.60;;;12.50;85.20;;;;;;4967069;28;20221;-77
2023/05/12 03:07:36;;;;;;;0.73;0.73;;;12.60;84.90;;;;;;4966703;28;20228;-77
2023/05/12 03:10:06;;;;;;;1.23;1.13;;;12.60;84.70;;;;;;4964442;28;20193;-78
2023/05/12 03:12:35;;;;;;;0.83;0.80;;;12.60;85.30;;;;;;4962750;28;20189;-77
2023/05/12 03:15:04;;;;;;;1.83;1.73;;;12.60;86.10;;;;;;4967688;28;20645;-77
2023/05/12 03:17:32;;;;;;;1.10;1.00;;;12.60;85.80;;;;;;4961292;28;20208;-77
2023/05/12 03:20:01;;;;;;;0.90;0.83;;;12.60;86.70;;;;;;4958624;28;20804;-76
2023/05/12 03:22:30;;;;;;;2.77;0.97;;;12.60;86.50;;;;;;4957907;28;20209;-77
2023/05/12 03:24:58;;;;;;;1.23;1.13;;;12.60;87.10;;;;;;4964828;28;20241;-76
2023/05/12 03:27:27;;;;;;;0.60;0.60;;;12.70;86.90;;;;;;4963878;28;20273;-77
2023/05/12 03:29:56;;;;;;;1.23;1.13;;;12.70;86.30;;;;;;4969737;28;20767;-76
2023/05/12 03:32:24;;;;;;;2.50;1.60;;;12.80;86.10;;;;;;4962844;28;20622;-76
2023/05/12 03:34:53;;;;;;;0.53;0.53;;;12.80;85.80;;;;;;4974580;28;20200;-77
2023/05/12 03:37:21;;;;;;;2.03;1.23;;;12.80;85.40;;;;;;4971019;28;20467;-76
2023/05/12 03:39:49;;;;;;;0.47;0.47;;;12.90;85.40;;;;;;4970420;28;20665;-77
2023/05/12 03:42:18;;;;;;;0.57;0.47;;;12.90;85.30;;;;;;4971927;28;20197;-76
2023/05/12 03:44:47;;;;;;;0.60;0.60;;;13.00;85.70;;;;;;4966517;28;20202;-77
2023/05/12 03:47:15;;;;;;;1.30;0.70;;;13.00;84.90;;;;;;4970485;28;20296;-77
2023/05/12 03:49:44;;;;;;;0.57;0.57;;;13.10;84.80;;;;;;4961405;28;20639;-76
2023/05/12 03:52:12;;;;;;;1.13;0.90;;;13.10;84.60;;;;;;4968045;28;20194;-77
2023/05/12 03:54:41;;;;;;;0.77;0.77;;;13.20;84.60;;;;;;4958851;28;20201;-77
2023/05/12 03:57:09;;;;;;;0.40;0.40;;;13.20;84.60;;;;;;4967725;28;20225;-77
2023/05/12 03:59:37;;;;;;;1.07;0.70;;;13.30;84.60;;;;;;4962979;28;20229;-77
2023/05/12 04:02:10;;;;;;;0.63;0.63;;;13.30;84.60;;;;;;4964898;28;20281;-77
2023/05/12 04:04:39;;;;;;;1.83;1.00;;;13.30;84.70;;;;;;4964973;28;20202;-77
2023/05/12 04:07:07;;;;;;;1.43;0.83;;;13.30;84.70;;;;;;4965433;28;20233;-76
2023/05/12 04:09:35;;;;;;;1.00;0.93;;;13.40;84.70;;;;;;4976819;28;20249;-77
2023/05/12 04:12:04;;;;;;;0.33;0.33;;;13.40;84.70;;;;;;4959045;28;20202;-77
2023/05/12 04:14:32;;;;;;;0.93;0.93;;;13.40;85.20;;;;;;4961511;28;20288;-77
2023/05/12 04:17:11;;;;;;;0.77;0.77;;;13.50;85.00;;;;;;4959845;28;20654;-77
2023/05/12 04:19:39;;;;;;;3.03;2.07;;;13.50;85.10;;;;;;4969996;28;20713;-78
2023/05/12 04:22:07;;;;;;;3.87;2.10;;;13.50;85.50;;;;;;4963972;28;20193;-76
2023/05/12 04:24:38;;;;;;;3.07;1.57;;;13.50;85.20;;;;;;4965763;28;20209;-79
2023/05/12 04:27:06;;;;;;;5.13;1.67;;;13.60;85.20;;;;;;4967525;28;20190;-76
2023/05/12 04:29:35;;;;;;;3.77;1.97;;;13.60;85.20;;;;;;4961806;28;20242;-77
2023/05/12 04:32:03;;;;;;;4.10;1.17;;;13.60;85.40;;;;;;4962095;28;20237;-78
2023/05/12 04:34:33;;;;;;;7.13;1.93;;;13.70;85.20;;;;;;4962038;28;20220;-77
2023/05/12 04:37:01;;;;;;;4.75;1.80;;;13.70;86.10;;;;;;4966114;28;20482;-77
2023/05/12 04:39:29;;;;;;;1.97;1.47;;;13.80;85.90;;;;;;4960895;28;20201;-76
2023/05/12 04:41:59;;;;;;;2.90;1.93;;;13.80;86.30;;;;;;4972236;28;20249;-76
2023/05/12 04:44:28;;;;;;;2.87;1.57;;;13.80;86.00;;;;;;4965261;28;20292;-77
2023/05/12 04:46:56;;;;;;;3.47;1.80;;;13.90;85.70;;;;;;4974215;28;20185;-77
2023/05/12 04:49:25;;;;;;;6.20;2.33;;;13.90;86.50;;;;;;4971357;28;20221;-77
2023/05/12 04:51:55;;;;;;;2.10;1.43;;;14.00;85.90;;;;;;4969454;28;21010;-78
2023/05/12 04:54:23;;;;;;;1.30;1.20;;;14.00;86.40;;;;;;4968726;28;20190;-77
2023/05/12 04:56:51;;;;;;;1.90;1.53;;;14.00;86.10;;;;;;4966725;28;20645;-77
2023/05/12 04:59:20;;;;;;;1.27;1.17;;;14.10;86.10;;;;;;4966442;28;20304;-77
2023/05/12 05:01:48;;;;;;;1.60;1.13;;;14.20;86.00;;;;;;4971099;28;20281;-77
2023/05/12 05:04:17;;;;;;;3.13;1.77;;;14.20;85.90;;;;;;4974884;28;20667;-77
2023/05/12 05:06:45;;;;;;;2.43;1.90;;;14.30;85.70;;;;;;4967921;28;20276;-77
2023/05/12 05:09:15;;;;;;;3.00;1.40;;;14.30;86.00;;;;;;4970397;28;20281;-78
2023/05/12 05:11:43;;;;;;;2.73;1.87;;;14.30;85.90;;;;;;4971945;28;20201;-77
2023/05/12 05:14:11;;;;;;;3.53;1.60;;;14.40;85.70;;;;;;4961235;28;20198;-76
2023/05/12 05:16:40;;;;;;;2.10;1.30;;;14.50;85.60;;;;;;4960174;28;20197;-78
2023/05/12 05:19:08;;;;;;;2.27;1.50;;;14.60;85.40;;;;;;4966252;28;20225;-77
2023/05/12 05:21:49;;;;;;;6.43;1.70;;;14.60;85.20;;;;;;4969829;28;20198;-77
2023/05/12 05:24:19;;;;;;;2.83;1.60;;;14.70;85.00;;;;;;4966361;28;20197;-77
2023/05/12 05:26:47;;;;;;;2.03;1.87;;;14.70;85.00;;;;;;4963937;28;21072;-77
2023/05/12 05:29:16;;;;;;;3.57;2.40;;;14.80;85.60;;;;;;4970270;28;20225;-78
2023/05/12 05:31:44;;;;;;;2.47;1.70;;;14.80;84.40;;;;;;4967301;28;20206;-79
2023/05/12 05:34:12;;;;;;;2.27;1.63;;;14.90;84.10;;;;;;4975562;28;20194;-77
2023/05/12 05:36:41;;;;;;;2.77;1.43;;;14.90;84.10;;;;;;4974604;28;20198;-78
2023/05/12 05:39:14;;;;;;;2.67;1.13;;;15.00;84.00;;;;;;4963249;28;20208;-79
2023/05/12 05:41:50;;;;;;;4.03;1.50;;;15.00;83.80;;;;;;4967083;28;20194;-77
2023/05/12 05:44:18;;;;;;;2.23;1.53;;;15.10;83.60;;;;;;4972510;28;20680;-78
2023/05/12 05:46:46;;;;;;;3.43;1.40;;;15.10;83.40;;;;;;4963412;28;20734;-77
2023/05/12 05:49:15;;;;;;;1.93;1.50;;;15.20;83.30;;;;;;4983911;28;20650;-78
2023/05/12 05:51:43;;;;;;;3.07;1.93;;;15.30;83.10;;;;;;4964311;28;20230;-77
2023/05/12 05:54:11;;;;;;;2.77;1.73;;;15.30;83.00;;;;;;4964603;28;20619;-77
2023/05/12 05:56:40;;;;;;;1.88;1.45;;;15.40;82.90;;;;;;4959448;28;20448;-75
2023/05/12 05:59:10;;;;;;;3.47;1.30;;;15.50;82.70;;;;;;4963827;28;20701;-76
2023/05/12 06:01:38;;;;;;;6.03;1.63;;;15.50;82.30;;;;;;4961841;28;20206;-77
2023/05/12 06:04:06;;;;;;;2.80;2.50;;;15.50;82.20;;;;;;4968993;28;20194;-76
2023/05/12 06:06:35;;;;;;;2.23;1.33;;;15.60;82.10;;;;;;4971296;28;20217;-77
2023/05/12 06:09:03;;;;;;;7.13;1.93;;;15.60;81.90;;;;;;4956225;28;20330;-76
2023/05/12 06:11:31;;;;;;;1.90;1.43;;;15.70;81.60;;;;;;4966182;28;20245;-76
2023/05/12 06:13:59;;;;;;;2.63;1.23;;;15.80;81.40;;;;;;4972620;28;20187;-77
2023/05/12 06:16:29;;;;;;;2.47;1.63;;;15.80;81.20;;;;;;4965308;28;20605;-77
2023/05/12 06:18:57;;;;;;;3.27;1.70;;;15.90;80.50;;;;;;4970889;28;20268;-77
2023/05/12 06:21:28;;;;;;;1.27;1.17;;;15.90;79.00;;;;;;4970448;28;20201;-77
2023/05/12 06:23:58;;;;;;;4.33;1.50;;;16.00;79.30;;;;;;4963925;28;20715;-78
2023/05/12 06:26:26;;;;;;;5.07;1.60;;;16.10;79.10;;;;;;4971270;28;20228;-77
2023/05/12 06:28:55;;;;;;;1.57;1.23;;;16.10;78.70;;;;;;4977271;28;20650;-77
2023/05/12 06:31:23;;;;;;;3.00;1.70;;;16.20;78.70;;;;;;4972801;28;20229;-77
2023/05/12 06:33:53;;;;;;;0.90;0.63;;;16.20;78.80;;;;;;4970360;28;20669;-76
2023/05/12 06:36:21;;;;;;;1.77;0.80;;;16.20;78.70;;;;;;4970367;28;20276;-76
2023/05/12 06:38:51;;;;;;;2.00;0.80;;;16.20;78.60;;;;;;4971389;28;20202;-77
2023/05/12 06:41:20;;;;;;;2.30;1.40;;;16.30;77.80;;;;;;4964237;28;20231;-77
2023/05/12 06:43:49;;;;;;;1.27;1.03;;;16.40;77.70;;;;;;4964876;28;20237;-77
2023/05/12 06:46:17;;;;;;;2.93;1.20;;;16.40;77.70;;;;;;4960262;28;20197;-77
2023/05/12 06:48:46;;;;;;;1.20;1.10;;;16.40;76.10;;;;;;4965932;28;20190;-77
2023/05/12 06:51:15;;;;;;;2.30;1.27;;;16.50;76.40;;;;;;4963122;28;20233;-76
2023/05/12 06:53:44;;;;;;;2.03;1.23;;;16.50;76.50;;;;;;4968096;28;20838;-77
2023/05/12 06:56:15;;;;;;;0.97;0.83;;;16.60;76.60;;;;;;4966059;28;20281;-76
2023/05/12 06:58:44;;;;;;;1.97;1.30;;;16.60;76.60;;;;;;4961722;28;20666;-76
2023/05/12 07:01:12;;;;;;;5.60;1.63;;;16.60;76.50;;;;;;4968376;28;20198;-76
2023/05/12 07:03:40;;;;;;;4.30;2.07;;;16.70;76.50;;;;;;4972676;28;20196;-77
2023/05/12 07:06:09;;;;;;;2.43;1.33;;;16.80;76.50;;;;;;4975116;28;20193;-77
2023/05/12 07:08:39;;;;;;;1.20;0.80;;;16.70;75.30;;;;;;4983245;28;20244;-76
2023/05/12 07:11:07;;;;;;;1.80;1.10;;;16.80;74.90;;;;;;4971640;28;20248;-77
2023/05/12 07:13:36;;;;;;;2.50;1.90;;;16.80;74.40;;;;;;4962749;28;20198;-76
2023/05/12 07:16:06;;;;;;;5.27;2.10;;;16.90;74.70;;;;;;4969310;28;20201;-77
2023/05/12 07:18:34;;;;;;;1.33;1.00;;;16.90;74.70;;;;;;4977751;28;20194;-78
2023/05/12 07:21:03;;;;;;;3.00;1.83;;;17.00;74.00;;;;;;4977241;28;20724;-77
2023/05/12 07:23:31;;;;;;;3.60;1.80;;;17.00;74.00;;;;;;4968826;28;20201;-76
2023/05/12 07:26:01;;;;;;;3.17;1.57;;;17.00;73.20;;;;;;4971959;28;20239;-77
2023/05/12 07:28:31;;;;;;;3.03;1.23;;;17.00;73.40;;;;;;4976201;28;20241;-77
2023/05/12 07:30:59;;;;;;;2.37;1.30;;;17.10;73.40;;;;;;4972863;28;20253;-77
2023/05/12 07:33:27;;;;;;;3.87;1.63;;;17.10;72.30;;;;;;4985319;28;20277;-77
2023/05/12 07:35:56;;;;;;;3.67;2.33;;;17.10;71.70;;;;;;4970788;28;20268;-77
2023/05/12 07:38:25;;;;;;;2.93;1.57;;;17.10;72.00;;;;;;4965558;28;20198;-77
2023/05/12 07:40:53;;;;;;;1.83;1.07;;;17.10;71.40;;;;;;4977245;28;20710;-76
2023/05/12 07:43:23;;;;;;;1.23;1.00;;;17.10;71.00;;;;;;4980144;28;20228;-78
2023/05/12 07:45:54;;;;;;;0.80;0.70;;;17.20;70.60;;;;;;4968068;28;20193;-76
2023/05/12 07:48:23;;;;;;;2.40;0.97;;;17.20;70.80;;;;;;4972344;28;20194;-75
2023/05/12 07:50:51;;;;;;;1.90;1.27;;;17.30;70.70;;;;;;4966744;28;20237;-76
2023/05/12 07:53:20;;;;;;;3.30;1.47;;;17.40;71.20;;;;;;4965809;28;20615;-75
2023/05/12 07:55:48;;;;;;;1.77;0.97;;;17.40;70.50;;;;;;4972377;28;20252;-74
2023/05/12 07:58:17;;;;;;;1.07;1.00;;;17.40;70.20;;;;;;4972855;28;20233;-76
2023/05/12 08:00:46;;;;;;;2.90;1.60;;;17.40;69.50;;;;;;4975424;28;20197;-76
2023/05/12 08:03:15;;;;;;;0.83;0.60;;;17.40;69.70;;;;;;4969902;28;20240;-76
2023/05/12 08:05:44;;;;;;;1.67;0.90;;;17.50;68.80;;;;;;4964654;28;20201;-77
2023/05/12 08:08:15;;;;;;;1.83;1.27;;;17.50;68.90;;;;;;4978070;28;20701;-75
2023/05/12 08:10:43;;;;;;;0.73;0.73;;;17.50;68.20;;;;;;4983670;28;20213;-74
2023/05/12 08:13:12;;;;;;;1.17;1.03;;;17.50;68.90;;;;;;4971002;28;20222;-73
2023/05/12 08:15:40;;;;;;;1.27;1.17;;;17.50;69.50;;;;;;4971032;28;20236;-75
2023/05/12 08:18:10;;;;;;;2.37;1.10;;;17.60;69.20;;;;;;4972262;28;20661;-75
2023/05/12 08:20:38;;;;;;;1.20;0.60;;;17.60;69.10;;;;;;4981153;28;20293;-75
2023/05/12 08:23:06;;;;;;;1.33;0.77;;;17.60;68.80;;;;;;4985893;28;20211;-76
2023/05/12 08:25:36;;;;;;;0.50;0.50;;;17.60;68.10;;;;;;4970251;28;20202;-76
2023/05/12 08:28:04;;;;;;;1.33;0.83;;;17.70;68.30;;;;;;4980111;28;20551;-75
2023/05/12 08:30:32;;;;;;;0.63;0.50;;;17.70;68.40;;;;;;4970859;28;20352;-75
2023/05/12 08:33:01;;;;;;;1.00;0.87;;;17.70;68.40;;;;;;4973696;28;20197;-76
2023/05/12 08:35:30;;;;;;;0.83;0.83;;;17.80;68.10;;;;;;4972717;28;20198;-76
2023/05/12 08:38:00;;;;;;;14.57;1.43;;;17.80;67.70;;;;;;4964046;28;22809;-75
2023/05/12 08:40:31;;;;;;;1.07;0.80;;;17.70;66.10;;;;;;4966202;28;20278;-75
2023/05/12 08:43:07;;;;;;;1.43;0.90;;;17.70;66.70;;;;;;4969289;28;20198;-75
2023/05/12 08:45:37;;;;;;;1.27;0.77;;;17.80;67.10;;;;;;4972325;28;20198;-75
2023/05/12 08:48:08;;;;;;;0.87;0.60;;;17.80;66.60;;;;;;4964680;28;20313;-75
2023/05/12 08:50:41;;;;;;;1.13;0.60;;;17.90;66.90;;;;;;4963573;28;20190;-75
2023/05/12 08:53:11;;;;;;;1.13;0.80;;;17.90;65.60;;;;;;4971263;28;20281;-75
2023/05/12 08:55:41;;;;;;;0.87;0.77;;;18.00;66.20;;;;;;4968875;28;20528;-75
2023/05/12 08:58:18;;;;;;;0.70;0.70;;;18.10;66.30;;;;;;4971259;28;20203;-74
2023/05/12 09:01:03;;;;;;;1.83;0.70;;;18.10;65.90;;;;;;4967022;28;20200;-75
2023/05/12 09:03:33;;;;;;;2.27;1.40;;;18.20;67.00;;;;;;4966062;28;20244;-75
2023/05/12 09:06:05;;;;;;;1.33;0.87;;;18.20;64.80;;;;;;4965310;28;20202;-75
2023/05/12 09:08:34;;;;;;;1.10;0.70;;;18.20;65.40;;;;;;4971821;28;20614;-76
2023/05/12 09:11:05;;;;;;;1.10;0.87;;;18.20;63.30;;;;;;4963826;28;20225;-76
2023/05/12 09:13:39;;;;;;;0.50;0.50;;;18.20;62.90;;;;;;4981218;28;20600;-75
2023/05/12 09:16:12;;;;;;;0.77;0.53;;;18.30;63.40;;;;;;4965281;28;20189;-77
2023/05/12 09:18:49;;;;;;;1.53;1.20;;;18.20;62.50;;;;;;4961731;28;20185;-75
2023/05/12 09:21:19;;;;;;;1.50;0.70;;;18.20;61.80;;;;;;4967220;28;20196;-76
2023/05/12 09:24:10;;;;;;;2.17;1.40;;;18.30;62.50;;;;;;4971684;28;20198;-75
2023/05/12 09:26:50;;;;;;;0.90;0.73;;;18.30;62.20;;;;;;4977125;28;20205;-77
2023/05/12 09:32:07;;;;;;;0.70;0.50;;;18.20;62.60;;;;;;5018243;23;20238;-75
2023/05/12 09:34:39;;;;;;;5.73;0.80;;;18.20;62.60;;;;;;4901262;29;20263;-74
2023/05/12 09:37:10;;;;;;;1.13;1.03;;;18.10;62.00;;;;;;4905991;29;20643;-73
2023/05/12 09:39:40;;;;;;;0.90;0.60;;;18.20;62.80;;;;;;4909949;29;20247;-74
2023/05/12 09:42:12;;;;;;;0.70;0.70;;;18.10;62.00;;;;;;4913219;29;20224;-76
2023/05/12 09:44:41;;;;;;;0.70;0.70;;;18.10;62.40;;;;;;4908521;29;20188;-74
2023/05/12 09:47:09;;;;;;;1.03;0.53;;;18.10;63.00;;;;;;4906604;29;20200;-75
2023/05/12 09:49:37;;;;;;;0.70;0.70;;;18.10;62.40;;;;;;4905787;29;20276;-73
2023/05/12 09:52:09;;;;;;;0.60;0.60;;;18.10;62.90;;;;;;4909004;29;20282;-74
2023/05/12 09:54:40;;;;;;;3.33;1.13;;;18.20;63.40;;;;;;4910320;29;20211;-74
2023/05/12 09:57:11;;;;;;;1.00;0.93;;;18.20;63.60;;;;;;4912096;29;20278;-75
2023/05/12 09:59:42;;;;;;;1.40;1.10;;;18.20;63.80;;;;;;4900514;29;20288;-75
2023/05/12 10:02:15;;;;;;;0.50;0.50;;;18.20;63.00;;;;;;4906325;29;20235;-74
2023/05/12 10:04:47;;;;;;;1.13;0.60;;;18.20;63.20;;;;;;4905379;29;20203;-74
2023/05/12 10:07:18;;;;;;;0.53;0.50;;;18.20;63.30;;;;;;4900771;29;20227;-74
2023/05/12 10:09:49;;;;;;;3.20;1.07;;;18.30;63.20;;;;;;4906340;29;20318;-74
2023/05/12 10:12:17;;;;;;;0.80;0.80;;;18.20;62.90;;;;;;4905108;29;20324;-75
2023/05/12 10:14:48;;;;;;;0.57;0.57;;;18.20;63.10;;;;;;4903666;29;20251;-76
2023/05/12 10:17:18;;;;;;;1.53;1.13;;;18.30;62.50;;;;;;4901746;29;20195;-75
2023/05/12 10:19:49;;;;;;;2.03;0.93;;;18.30;62.30;;;;;;4906042;29;20207;-75
2023/05/12 10:22:22;;;;;;;0.73;0.73;;;18.30;63.00;;;;;;4905152;29;20652;-74
2023/05/12 10:25:01;;;;;;;0.53;0.53;;;18.40;63.50;;;;;;4896186;29;20200;-75
2023/05/12 10:27:32;;;;;;;0.50;0.50;;;18.40;63.00;;;;;;4903849;29;20214;-73
2023/05/12 10:30:02;;;;;;;5.20;0.67;;;18.40;62.80;;;;;;4909915;29;20218;-74
2023/05/12 10:32:31;;;;;;;2.70;0.90;;;18.40;62.50;;;;;;4907119;29;20236;-73
2023/05/12 10:35:08;;;;;;;0.97;0.70;;;18.40;62.90;;;;;;4917393;29;20283;-73
2023/05/12 10:37:37;;;;;;;0.40;0.40;;;18.40;63.10;;;;;;4905716;29;20196;-74
2023/05/12 10:40:09;;;;;;;0.70;0.70;;;18.40;63.10;;;;;;4913112;29;20200;-73
2023/05/12 10:42:39;;;;;;;1.97;1.23;;;18.40;62.60;;;;;;4903964;29;20197;-74
2023/05/12 10:45:17;;;;;;;1.70;1.23;;;18.40;63.00;;;;;;4906588;29;20203;-74
2023/05/12 10:47:46;;;;;;;0.87;0.60;;;18.40;62.80;;;;;;4901366;29;20200;-73
2023/05/12 10:50:15;;;;;;;1.90;1.43;;;18.40;62.80;;;;;;4912863;29;20215;-73
2023/05/12 10:53:02;;;;;;;0.50;0.47;;;18.40;63.00;;;;;;4909567;29;20311;-73
2023/05/12 10:55:44;;;;;;;6.03;0.97;;;18.50;63.30;;;;;;4897573;29;20228;-75
2023/05/12 10:58:13;;;;;;;0.90;0.90;;;18.50;63.20;;;;;;4906394;29;20227;-73
2023/05/12 11:00:49;;;;;;;0.40;0.40;;;18.50;62.30;;;;;;4903182;29;20286;-73
2023/05/12 11:03:24;;;;;;;0.83;0.83;;;18.50;62.50;;;;;;4908711;29;20222;-73
2023/05/12 11:05:59;;;;;;;0.67;0.40;;;18.50;63.00;;;;;;4911094;29;20197;-75
2023/05/12 11:08:29;;;;;;;0.53;0.53;;;18.60;63.30;;;;;;4906381;29;20286;-73
2023/05/12 11:11:02;;;;;;;5.00;0.73;;;18.60;62.40;;;;;;4903994;29;20197;-73
2023/05/12 11:13:31;;;;;;;3.40;0.57;;;18.70;62.90;;;;;;4898049;29;20224;-75
2023/05/12 11:15:59;;;;;;;9.90;1.00;;;18.70;62.20;;;;;;4908906;29;20255;-74
2023/05/12 11:18:28;;;;;;;0.90;0.80;;;18.80;62.30;;;;;;4909450;29;20199;-74
2023/05/12 11:20:56;;;;;;;0.60;0.40;;;18.80;62.90;;;;;;4908632;29;20195;-74
2023/05/12 11:23:27;;;;;;;0.83;0.70;;;18.80;62.20;;;;;;4900292;29;20247;-74
2023/05/12 11:25:56;;;;;;;0.50;0.50;;;18.90;62.50;;;;;;4909580;29;20216;-73
2023/05/12 11:28:26;;;;;;;0.40;0.40;;;18.90;62.70;;;;;;4909763;29;20633;-74
2023/05/12 11:30:54;;;;;;;0.77;0.57;;;19.00;62.90;;;;;;4911645;29;20259;-74
2023/05/12 11:33:23;;;;;;;1.43;0.70;;;19.00;62.60;;;;;;4898377;29;20231;-75
2023/05/12 11:35:51;;;;;;;6.43;2.00;;;19.00;62.80;;;;;;4901995;29;20204;-75
2023/05/12 11:38:23;;;;;;;1.33;0.60;;;19.10;62.90;;;;;;4904418;29;20227;-75
2023/05/12 11:40:51;;;;;;;0.60;0.60;;;19.10;62.90;;;;;;4903338;29;20196;-75
2023/05/12 11:43:21;;;;;;;1.20;0.73;;;19.10;62.30;;;;;;4904445;29;20591;-75
2023/05/12 11:45:51;;;;;;;1.90;0.97;;;19.10;62.20;;;;;;4900232;29;20208;-74
2023/05/12 11:48:20;;;;;;;0.97;0.57;;;19.00;60.30;;;;;;4904440;29;20200;-74
2023/05/12 11:50:50;;;;;;;0.60;0.50;;;19.10;60.20;;;;;;4909312;29;20199;-74
2023/05/12 11:53:19;;;;;;;1.13;1.03;;;19.10;59.70;;;;;;4906117;29;20228;-73
2023/05/12 11:55:49;;;;;;;0.73;0.70;;;19.10;59.90;;;;;;4907677;29;20203;-75
2023/05/12 11:58:24;;;;;;;0.90;0.60;;;19.10;59.10;;;;;;4902702;29;20196;-75
2023/05/12 12:00:55;;;;;;;1.03;0.40;;;19.20;59.40;;;;;;4909522;29;20274;-74
2023/05/12 12:03:25;;;;;;;1.03;0.57;;;19.20;57.90;;;;;;4905031;29;20200;-73
2023/05/12 12:06:01;;;;;;;2.47;0.50;;;19.30;57.80;;;;;;4902099;29;20292;-74
2023/05/12 12:08:29;;;;;;;0.83;0.80;;;19.40;57.60;;;;;;4899718;29;20236;-74
2023/05/12 12:10:58;;;;;;;1.13;0.53;;;19.40;57.90;;;;;;4905249;29;20657;-71
2023/05/12 12:13:29;;;;;;;3.27;0.73;;;19.50;58.00;;;;;;4905060;29;20208;-72
2023/05/12 12:15:59;;;;;;;3.20;1.20;;;19.60;57.00;;;;;;4908005;29;20196;-74
2023/05/12 12:18:28;;;;;;;0.63;0.50;;;19.70;57.30;;;;;;4911404;29;20232;-75
2023/05/12 12:20:56;;;;;;;1.88;0.60;;;19.90;57.50;;;;;;4905153;29;20326;-74
2023/05/12 12:23:24;;;;;;;1.15;0.90;;;20.00;55.90;;;;;;4905857;29;20206;-75
2023/05/12 12:25:53;;;;;;;1.00;0.60;;;20.10;55.30;;;;;;4910792;29;20192;-74
2023/05/12 12:28:21;;;;;;;1.15;0.80;;;20.20;55.40;;;;;;4906509;29;20294;-75
2023/05/12 12:30:49;;;;;;;0.68;0.55;;;20.20;55.60;;;;;;4911335;29;20193;-74
2023/05/12 12:33:19;;;;;;;0.63;0.60;;;20.30;55.70;;;;;;4908934;29;20307;-73
2023/05/12 12:35:47;;;;;;;0.43;0.43;;;20.40;56.00;;;;;;4906948;29;20197;-74
2023/05/12 12:38:16;;;;;;;0.60;0.60;;;20.40;55.20;;;;;;4904729;29;20201;-73
2023/05/12 12:40:44;;;;;;;0.60;0.60;;;20.50;54.40;;;;;;4911399;29;20211;-74
2023/05/12 12:43:13;;;;;;;1.00;0.80;;;20.50;53.80;;;;;;4909960;29;20248;-74
2023/05/12 12:45:41;;;;;;;0.50;0.40;;;20.50;54.90;;;;;;4906890;29;20224;-73
2023/05/12 12:48:09;;;;;;;0.80;0.80;;;20.50;53.70;;;;;;4906298;29;20197;-72
2023/05/12 12:50:39;;;;;;;1.10;0.70;;;20.40;53.90;;;;;;4909322;29;20231;-73
2023/05/12 12:53:08;;;;;;;3.03;0.95;;;20.50;54.40;;;;;;4902765;29;20584;-73
2023/05/12 12:55:37;;;;;;;2.08;0.95;;;20.40;54.40;;;;;;4910388;29;20210;-73
2023/05/12 12:58:05;;;;;;;1.45;0.80;;;20.40;54.10;;;;;;4911744;29;20188;-74
2023/05/12 13:00:34;;;;;;;0.73;0.73;;;20.40;53.30;;;;;;4911661;29;20196;-72
2023/05/12 13:03:02;;;;;;;0.60;0.60;;;20.30;53.00;;;;;;4909912;29;20676;-72